Time;durP1;ratioP1;P1;durP2;ratioP2;P2;SDS_P1;SDS_P2;PMS_P1;PMS_P2;Temp;Humidity;BMP_temperature;BMP_pressure;BME280_temperature;BME280_humidity;BME280_pressure;Samples;Min_cycle;Max_cycle;Signal;HPM_P1;HPM_P2
2023/03/21 00:00:03;;;;;;;4.10;3.20;;;;;;;8.63;100.00;96551.91;5011318;28;101840;-62
2023/03/21 00:02:32;;;;;;;2.83;2.63;;;;;;;8.66;100.00;96563.88;5010494;28;102182;-62
2023/03/21 00:05:00;;;;;;;2.80;2.50;;;;;;;8.64;100.00;96556.19;5008592;28;105626;-62
2023/03/21 00:07:27;;;;;;;4.63;4.23;;;;;;;8.64;100.00;96555.34;5009120;28;102169;-62
2023/03/21 00:09:54;;;;;;;3.60;3.30;;;;;;;8.66;100.00;96548.78;5023778;28;104861;-62
2023/03/21 00:12:21;;;;;;;3.33;3.03;;;;;;;8.64;100.00;96544.75;5029521;28;101986;-62
2023/03/21 00:15:11;;;;;;;3.53;2.90;;;;;;;8.57;100.00;96544.09;5013019;28;105066;-62
2023/03/21 00:17:39;;;;;;;2.97;2.67;;;;;;;8.60;100.00;96543.59;5010630;28;102634;-62
2023/03/21 00:20:13;;;;;;;3.47;3.17;;;;;;;8.59;100.00;96539.34;5028091;28;101823;-62
2023/03/21 00:22:53;;;;;;;5.47;3.17;;;;;;;8.64;100.00;96539.44;5030278;28;102568;-62
2023/03/21 00:25:20;;;;;;;3.13;2.83;;;;;;;8.64;100.00;96534.97;5028890;28;104639;-62
2023/03/21 00:27:46;;;;;;;4.37;3.13;;;;;;;8.54;100.00;96533.94;5023281;27;101836;-62
2023/03/21 00:30:15;;;;;;;3.90;3.27;;;;;;;8.51;100.00;96529.13;5008998;28;105128;-62
2023/03/21 00:32:47;;;;;;;3.40;3.10;;;;;;;8.60;100.00;96530.34;5012108;28;105643;-62
2023/03/21 00:35:16;;;;;;;3.30;2.83;;;;;;;8.67;100.00;96536.34;5009028;28;105478;-62
2023/03/21 00:37:45;;;;;;;4.07;2.83;;;;;;;8.70;100.00;96523.41;5009465;28;104958;-62
2023/03/21 00:40:13;;;;;;;2.70;2.50;;;;;;;8.74;100.00;96524.56;5009134;28;101941;-62
2023/03/21 00:42:43;;;;;;;2.60;2.40;;;;;;;8.73;100.00;96519.50;5010383;28;102544;-62
2023/03/21 00:45:10;;;;;;;3.27;2.63;;;;;;;8.78;100.00;96519.59;5009903;28;101782;-62
2023/03/21 00:47:38;;;;;;;2.60;2.40;;;;;;;8.78;100.00;96511.66;5025951;28;103293;-62
2023/03/21 00:50:07;;;;;;;3.83;2.57;;;;;;;8.81;100.00;96521.75;5028899;28;105513;-62
2023/03/21 00:52:36;;;;;;;2.93;2.63;;;;;;;8.77;100.00;96518.78;5027883;28;105259;-62
2023/03/21 00:55:02;;;;;;;3.57;2.57;;;;;;;8.83;100.00;96517.06;5026477;27;101912;-62
2023/03/21 00:57:29;;;;;;;3.20;2.73;;;;;;;8.74;100.00;96518.44;5014684;28;105365;-62
2023/03/21 00:59:58;;;;;;;3.10;2.80;;;;;;;8.78;100.00;96504.47;5030202;27;101900;-62
2023/03/21 01:02:25;;;;;;;3.43;2.90;;;;;;;8.77;100.00;96496.78;5022910;28;103836;-62
2023/03/21 01:04:54;;;;;;;3.40;2.47;;;;;;;8.74;100.00;96497.25;5007971;28;105882;-62
2023/03/21 01:07:21;;;;;;;3.13;2.40;;;;;;;8.67;100.00;96499.22;5008698;28;102047;-62
2023/03/21 01:09:50;;;;;;;2.73;2.30;;;;;;;8.65;100.00;96493.34;5018330;28;104063;-62
2023/03/21 01:12:19;;;;;;;4.30;2.20;;;;;;;8.63;100.00;96496.25;5027866;28;104303;-62
2023/03/21 01:14:45;;;;;;;2.33;2.13;;;;;;;8.66;100.00;96492.28;5032098;28;101837;-62
2023/03/21 01:17:12;;;;;;;3.40;2.00;;;;;;;8.64;100.00;96494.38;5027278;27;105713;-62
2023/03/21 01:19:39;;;;;;;2.47;2.27;;;;;;;8.62;100.00;96493.81;5031713;28;101909;-62
2023/03/21 01:22:06;;;;;;;3.70;2.40;;;;;;;8.60;100.00;96491.41;5033219;27;102775;-62
2023/03/21 01:25:04;;;;;;;2.40;2.13;;;;;;;8.61;100.00;96492.22;5031457;28;104305;-62
2023/03/21 01:27:31;;;;;;;2.63;2.30;;;;;;;8.60;100.00;96487.94;5021529;28;101808;-62
2023/03/21 01:29:58;;;;;;;2.53;2.30;;;;;;;8.60;100.00;96496.72;5025232;28;105285;-62
2023/03/21 01:32:25;;;;;;;2.23;2.10;;;;;;;8.57;100.00;96486.56;5031150;28;105349;-62
2023/03/21 01:34:51;;;;;;;3.03;2.10;;;;;;;8.61;100.00;96486.91;5022777;28;101871;-62
2023/03/21 01:37:21;;;;;;;2.60;2.40;;;;;;;8.63;100.00;96484.81;5014555;28;104798;-62
2023/03/21 01:39:50;;;;;;;2.50;2.30;;;;;;;8.60;100.00;96486.09;5011654;28;102090;-62
2023/03/21 01:42:19;;;;;;;2.50;2.30;;;;;;;8.61;100.00;96484.28;5011686;28;105118;-62
2023/03/21 01:45:02;;;;;;;2.47;2.27;;;;;;;8.64;100.00;96483.78;5013021;28;103963;-62
2023/03/21 01:47:37;;;;;;;4.00;2.50;;;;;;;8.65;100.00;96480.09;5031426;28;101810;-62
2023/03/21 01:50:21;;;;;;;2.73;2.37;;;;;;;8.61;100.00;96476.31;5012999;28;105796;-62
2023/03/21 01:53:29;;;;;;;2.07;1.97;;;;;;;8.66;100.00;96473.75;5011811;28;103162;-62
2023/03/21 01:55:57;;;;;;;2.93;2.43;;;;;;;8.64;100.00;96470.53;5011411;28;101922;-62
2023/03/21 01:58:47;;;;;;;2.50;2.30;;;;;;;8.65;100.00;96464.19;5011357;28;104951;-62
2023/03/21 02:01:28;;;;;;;2.60;2.40;;;;;;;8.57;100.00;96467.22;5032080;28;105500;-62
2023/03/21 02:04:02;;;;;;;2.30;2.10;;;;;;;8.49;100.00;96464.94;5031520;28;104866;-62
2023/03/21 02:07:07;;;;;;;2.47;2.27;;;;;;;8.50;100.00;96463.91;5008070;28;104206;-62
2023/03/21 02:09:56;;;;;;;2.47;2.27;;;;;;;8.39;100.00;96459.44;5016513;28;101801;-62
2023/03/21 02:12:24;;;;;;;2.50;2.30;;;;;;;8.45;100.00;96456.66;5031303;28;105108;-62
2023/03/21 02:15:10;;;;;;;2.43;2.20;;;;;;;8.55;100.00;96458.69;5030476;28;105338;-62
2023/03/21 02:18:22;;;;;;;2.80;2.50;;;;;;;8.54;100.00;96446.47;4990291;28;102453;-62
2023/03/21 02:21:29;;;;;;;3.13;2.70;;;;;;;8.52;100.00;96451.22;5007411;28;105130;-62
2023/03/21 02:24:48;;;;;;;2.60;2.40;;;;;;;8.44;100.00;96443.63;5010287;28;105423;-62
2023/03/21 02:27:20;;;;;;;2.97;2.77;;;;;;;8.45;100.00;96445.25;5001457;28;101902;-62
2023/03/21 02:30:24;;;;;;;3.40;3.10;;;;;;;8.32;100.00;96440.22;5009804;28;105427;-62
2023/03/21 02:33:32;;;;;;;3.30;3.00;;;;;;;8.25;100.00;96444.84;5012364;28;101772;-62
2023/03/21 02:36:16;;;;;;;3.63;3.20;;;;;;;8.27;100.00;96440.09;5010620;28;105369;-62
2023/03/21 02:38:55;;;;;;;4.07;3.17;;;;;;;8.20;100.00;96440.25;5010529;28;105148;-62
2023/03/21 02:41:29;;;;;;;3.73;3.43;;;;;;;8.17;100.00;96439.84;5010688;28;101834;-62
2023/03/21 02:44:21;;;;;;;3.90;3.23;;;;;;;8.20;100.00;96437.59;4990903;28;105234;-62
2023/03/21 02:46:53;;;;;;;3.80;3.50;;;;;;;8.08;100.00;96428.03;4998982;28;105671;-62
2023/03/21 02:49:24;;;;;;;4.30;3.90;;;;;;;8.04;100.00;96433.00;5023566;27;101757;-62
2023/03/21 02:51:52;;;;;;;4.13;3.73;;;;;;;7.98;100.00;96439.22;5013516;28;104893;-62
2023/03/21 02:54:25;;;;;;;3.80;3.40;;;;;;;8.02;100.00;96439.56;5020712;28;101912;-62
2023/03/21 02:56:56;;;;;;;4.20;3.23;;;;;;;8.00;100.00;96441.63;5026416;28;102374;-62
2023/03/21 02:59:26;;;;;;;4.07;3.70;;;;;;;7.94;100.00;96431.97;5009692;28;105228;-62
2023/03/21 03:01:56;;;;;;;3.73;3.43;;;;;;;7.98;100.00;96433.13;5010242;28;101784;-62
2023/03/21 03:04:32;;;;;;;3.97;3.60;;;;;;;7.98;100.00;96436.59;5010309;28;105183;-62
2023/03/21 03:07:14;;;;;;;3.60;3.30;;;;;;;7.98;100.00;96438.41;5009849;28;105117;-62
2023/03/21 03:09:59;;;;;;;3.83;3.53;;;;;;;8.03;100.00;96431.41;5019566;28;101772;-62
2023/03/21 03:12:34;;;;;;;3.57;3.27;;;;;;;8.02;100.00;96432.41;5030421;28;105258;-62
2023/03/21 03:15:16;;;;;;;3.87;3.53;;;;;;;8.03;100.00;96436.69;5022503;28;103759;-62
2023/03/21 03:17:51;;;;;;;4.83;3.87;;;;;;;8.02;100.00;96428.97;5009861;28;105157;-62
2023/03/21 03:20:29;;;;;;;4.20;3.80;;;;;;;7.99;100.00;96434.72;5009759;28;105262;-62
2023/03/21 03:23:21;;;;;;;5.03;4.60;;;;;;;7.93;100.00;96439.13;5010003;28;101851;-62
2023/03/21 03:25:53;;;;;;;4.33;3.93;;;;;;;7.97;100.00;96437.59;4990270;28;105547;-62
2023/03/21 03:28:25;;;;;;;4.87;3.50;;;;;;;7.99;100.00;96437.38;5024912;28;105424;-62
2023/03/21 03:30:54;;;;;;;5.50;4.20;;;;;;;7.98;100.00;96436.59;5030311;28;101793;-62
2023/03/21 03:33:42;;;;;;;4.03;3.63;;;;;;;8.02;100.00;96439.56;5011833;28;104653;-62
2023/03/21 03:36:13;;;;;;;4.57;4.10;;;;;;;8.02;100.00;96426.31;5012756;28;105964;-62
2023/03/21 03:38:41;;;;;;;4.50;4.10;;;;;;;8.00;100.00;96431.84;5029802;28;105429;-62
2023/03/21 03:41:16;;;;;;;4.83;4.33;;;;;;;8.03;100.00;96434.03;5028030;27;102528;-62
2023/03/21 03:44:20;;;;;;;4.30;3.90;;;;;;;8.02;100.00;96439.56;5027541;27;102104;-62
2023/03/21 03:47:01;;;;;;;4.50;3.73;;;;;;;7.94;100.00;96437.25;5043472;27;105980;-62
2023/03/21 03:49:32;;;;;;;4.67;4.27;;;;;;;7.95;100.00;96438.88;5009248;28;105221;-62
2023/03/21 03:52:04;;;;;;;5.07;4.40;;;;;;;7.90;100.00;96433.50;5009744;28;101807;-62
2023/03/21 03:54:52;;;;;;;5.33;4.30;;;;;;;7.86;100.00;96432.34;5010509;28;103774;-62
2023/03/21 03:57:25;;;;;;;4.47;3.80;;;;;;;7.89;100.00;96439.78;5008839;28;104812;-62
2023/03/21 03:59:53;;;;;;;4.67;4.27;;;;;;;7.89;100.00;96431.84;5027418;28;101839;-62
2023/03/21 04:02:51;;;;;;;5.20;4.70;;;;;;;7.88;100.00;96436.34;5015374;27;103184;-62
2023/03/21 04:05:23;;;;;;;7.57;4.27;;;;;;;7.84;100.00;96437.03;5009550;28;102035;-62
2023/03/21 04:07:50;;;;;;;4.37;3.90;;;;;;;7.91;100.00;96435.09;5010966;28;102775;-62
2023/03/21 04:10:19;;;;;;;4.43;4.03;;;;;;;7.95;100.00;96430.91;5008791;28;105186;-62
2023/03/21 04:12:55;;;;;;;6.23;3.90;;;;;;;7.95;100.00;96434.38;5009274;28;101929;-62
2023/03/21 04:15:40;;;;;;;4.43;3.80;;;;;;;7.94;100.00;96431.97;4989736;28;102074;-62
2023/03/21 04:18:13;;;;;;;5.47;4.93;;;;;;;7.91;100.00;96429.78;5022964;28;105173;-62
2023/03/21 04:20:41;;;;;;;3.90;3.60;;;;;;;7.93;100.00;96430.38;5011374;28;102068;-62
2023/03/21 04:23:29;;;;;;;4.77;3.93;;;;;;;7.95;100.00;96428.28;5030573;28;104165;-62
2023/03/21 04:25:55;;;;;;;4.23;3.83;;;;;;;7.96;100.00;96432.56;5009705;28;102218;-62
2023/03/21 04:28:24;;;;;;;4.13;3.83;;;;;;;7.93;100.00;96433.00;5009254;28;104805;-62
2023/03/21 04:31:12;;;;;;;4.27;3.80;;;;;;;7.87;100.00;96428.66;4998203;28;101908;-62
2023/03/21 04:33:46;;;;;;;4.70;4.13;;;;;;;7.85;100.00;96436.03;5009092;28;101849;-62
2023/03/21 04:36:26;;;;;;;4.33;3.93;;;;;;;7.87;100.00;96433.94;5009213;28;105241;-62
2023/03/21 04:39:00;;;;;;;5.10;3.90;;;;;;;7.82;100.00;96433.81;5013778;28;105552;-62
2023/03/21 04:41:28;;;;;;;4.60;3.93;;;;;;;7.80;100.00;96436.69;5029142;28;101773;-62
2023/03/21 04:44:05;;;;;;;4.80;3.70;;;;;;;7.84;100.00;96439.69;5028716;28;105015;-62
2023/03/21 04:46:32;;;;;;;4.33;3.83;;;;;;;7.83;100.00;96435.44;5031678;28;105348;-62
2023/03/21 04:48:59;;;;;;;4.10;3.70;;;;;;;7.89;100.00;96431.84;5028871;28;103840;-62
2023/03/21 04:51:27;;;;;;;4.83;3.77;;;;;;;7.91;100.00;96432.44;5028643;27;105706;-62
2023/03/21 04:54:00;;;;;;;4.17;3.77;;;;;;;7.91;100.00;96427.94;5027546;28;101875;-62
2023/03/21 04:56:31;;;;;;;4.90;4.17;;;;;;;7.88;100.00;96431.06;5012249;28;105383;-62
2023/03/21 04:58:59;;;;;;;4.70;4.17;;;;;;;7.85;100.00;96428.09;5016783;28;105277;-62
2023/03/21 05:01:29;;;;;;;7.60;5.27;;;;;;;7.71;100.00;96437.28;5032203;28;102031;-62
2023/03/21 05:04:03;;;;;;;8.10;6.87;;;;;;;7.69;100.00;96434.06;5064753;27;105792;-62
2023/03/21 05:06:32;;;;;;;6.83;5.80;;;;;;;7.75;100.00;96436.59;5031400;28;104847;-62
2023/03/21 05:09:04;;;;;;;6.30;5.37;;;;;;;7.77;100.00;96436.34;5035781;28;101946;-62
2023/03/21 05:11:34;;;;;;;5.63;4.57;;;;;;;7.79;100.00;96442.25;5030002;28;105493;-62
2023/03/21 05:14:49;;;;;;;5.47;4.60;;;;;;;7.71;100.00;96437.28;5031992;28;101819;-62
2023/03/21 05:17:22;;;;;;;4.47;4.07;;;;;;;7.73;100.00;96440.50;5032070;28;105237;-62
2023/03/21 05:19:51;;;;;;;4.60;4.20;;;;;;;7.75;100.00;96438.44;5030565;28;105467;-62
2023/03/21 05:22:19;;;;;;;5.40;4.90;;;;;;;7.81;100.00;96432.22;5029383;28;101975;-62
2023/03/21 05:25:07;;;;;;;5.20;4.70;;;;;;;7.78;100.00;96437.97;5012997;28;104809;-62
2023/03/21 05:28:01;;;;;;;5.37;4.37;;;;;;;7.78;100.00;96432.66;5015393;28;104979;-62
2023/03/21 05:30:30;;;;;;;5.30;4.80;;;;;;;7.77;100.00;96421.28;5011852;28;102090;-62
2023/03/21 05:36:23;;;;;;;4.60;4.00;;;;;;;7.85;100.00;96433.38;5011812;28;101793;-62
2023/03/21 05:38:50;;;;;;;6.40;4.20;;;;;;;7.87;100.00;96434.75;5011740;28;104848;-62
2023/03/21 05:41:18;;;;;;;4.57;4.17;;;;;;;7.88;100.00;96428.41;5011044;28;105768;-62
2023/03/21 05:44:10;;;;;;;4.70;4.20;;;;;;;7.86;100.00;96429.69;5011497;28;101976;-62
2023/03/21 05:46:39;;;;;;;8.37;6.37;;;;;;;7.94;100.00;96432.78;5011515;28;105072;-63
2023/03/21 05:49:06;;;;;;;8.63;6.70;;;;;;;7.91;100.00;96430.59;5012338;28;102416;-62
2023/03/21 05:51:35;;;;;;;6.30;5.67;;;;;;;8.03;100.00;96430.56;5011604;28;101867;-62
2023/03/21 05:54:33;;;;;;;5.50;4.90;;;;;;;8.04;100.00;96432.19;5028285;28;105311;-62
2023/03/21 05:57:00;;;;;;;5.27;4.57;;;;;;;8.10;100.00;96429.41;5031599;28;101990;-62
2023/03/21 05:59:56;;;;;;;5.37;4.53;;;;;;;8.12;100.00;96429.97;5027154;27;102429;-63
2023/03/21 06:02:22;;;;;;;5.73;4.67;;;;;;;8.12;100.00;96434.50;5030719;28;105353;-62
2023/03/21 06:05:01;;;;;;;6.43;4.80;;;;;;;8.11;100.00;96438.16;5030528;27;101916;-62
2023/03/21 06:07:29;;;;;;;5.17;4.30;;;;;;;8.13;100.00;96434.22;5032861;27;102517;-62
2023/03/21 06:09:57;;;;;;;4.43;4.03;;;;;;;8.21;100.00;96430.44;5030631;28;105954;-63
2023/03/21 06:12:24;;;;;;;5.00;4.50;;;;;;;8.10;100.00;96432.06;5031010;28;101944;-62
2023/03/21 06:15:25;;;;;;;7.60;5.07;;;;;;;7.92;100.00;96434.06;5031380;28;105230;-62
2023/03/21 06:18:02;;;;;;;4.90;4.13;;;;;;;7.98;100.00;96435.75;5013723;28;105286;-63
2023/03/21 06:20:29;;;;;;;5.43;4.80;;;;;;;8.21;100.00;96438.41;5014366;28;105279;-62
2023/03/21 06:23:29;;;;;;;8.07;5.07;;;;;;;8.35;100.00;96437.88;5030365;28;105388;-62
2023/03/21 06:25:56;;;;;;;5.20;4.47;;;;;;;8.36;100.00;96441.34;5031130;28;101888;-62
2023/03/21 06:28:25;;;;;;;4.80;4.27;;;;;;;8.35;100.00;96434.44;5030982;28;105205;-62
2023/03/21 06:30:52;;;;;;;8.83;4.30;;;;;;;8.39;100.00;96443.56;5030449;28;105178;-62
2023/03/21 06:33:51;;;;;;;8.73;4.27;;;;;;;8.34;100.00;96443.44;5030980;28;101817;-63
2023/03/21 06:36:19;;;;;;;6.13;4.53;;;;;;;8.48;100.00;96442.94;4990837;28;105011;-62
2023/03/21 06:38:47;;;;;;;6.90;4.07;;;;;;;8.54;100.00;96443.81;4990651;28;105716;-62
2023/03/21 06:41:15;;;;;;;5.77;4.10;;;;;;;8.51;100.00;96449.63;5033995;28;101847;-63
2023/03/21 06:43:52;;;;;;;4.87;4.10;;;;;;;8.62;100.00;96452.22;5029639;28;105079;-63
2023/03/21 06:46:20;;;;;;;5.60;4.13;;;;;;;8.78;100.00;96446.16;5018790;28;101789;-62
2023/03/21 06:48:48;;;;;;;5.57;4.47;;;;;;;8.83;100.00;96456.06;5010343;28;105404;-63
2023/03/21 06:51:16;;;;;;;4.90;4.43;;;;;;;8.86;100.00;96448.44;5014259;28;105481;-63
2023/03/21 06:54:23;;;;;;;6.00;4.60;;;;;;;9.00;100.00;96441.78;5030599;28;101884;-63
2023/03/21 06:57:03;;;;;;;5.00;4.50;;;;;;;9.11;100.00;96446.22;5025761;28;105248;-63
2023/03/21 06:59:34;;;;;;;5.17;4.53;;;;;;;9.25;100.00;96442.22;5014461;28;105180;-63
2023/03/21 07:02:04;;;;;;;5.60;4.77;;;;;;;9.24;100.00;96445.91;5030236;28;102051;-63
2023/03/21 07:08:00;;;;;;;6.37;4.70;;;;;;;9.53;100.00;96450.09;4999029;28;101948;-63
2023/03/21 07:10:30;;;;;;;8.63;4.23;;;;;;;9.60;100.00;96444.63;5010361;28;104086;-63
2023/03/21 07:13:27;;;;;;;4.67;4.27;;;;;;;9.77;100.00;96456.81;5014566;28;105274;-63
2023/03/21 07:16:01;;;;;;;4.47;4.07;;;;;;;9.91;100.00;96458.09;5010351;28;101938;-63
2023/03/21 07:18:29;;;;;;;4.30;3.90;;;;;;;9.95;100.00;96448.59;5010609;28;102874;-63
2023/03/21 07:20:57;;;;;;;5.83;3.70;;;;;;;10.01;100.00;96457.44;5010515;28;102038;-63
2023/03/21 07:24:17;;;;;;;4.70;3.73;;;;;;;9.91;100.00;96458.09;5030014;28;102110;-64
2023/03/21 07:26:46;;;;;;;3.97;3.60;;;;;;;10.14;100.00;96459.78;5035526;27;105600;-63
2023/03/21 07:29:14;;;;;;;3.60;3.30;;;;;;;10.41;100.00;96464.13;5013200;28;105343;-63
2023/03/21 07:31:41;;;;;;;5.13;3.27;;;;;;;10.52;100.00;96449.91;4993017;28;105727;-64
2023/03/21 07:34:22;;;;;;;4.13;3.50;;;;;;;10.65;100.00;96456.69;5007807;28;105456;-64
2023/03/21 07:36:49;;;;;;;3.70;2.83;;;;;;;10.42;100.00;96459.63;5009329;28;101979;-64
2023/03/21 07:39:18;;;;;;;3.47;2.80;;;;;;;10.13;100.00;96466.13;5009322;28;104817;-64
2023/03/21 07:41:46;;;;;;;3.53;3.23;;;;;;;10.18;100.00;96458.22;5010157;28;102654;-65
2023/03/21 07:44:25;;;;;;;3.53;3.23;;;;;;;10.10;100.00;96456.00;5009579;28;101864;-63
2023/03/21 07:47:02;;;;;;;3.60;3.10;;;;;;;10.13;100.00;96461.63;5043177;27;104871;-70
2023/03/21 07:49:29;;;;;;;3.07;2.80;;;;;;;10.20;100.00;96459.59;5008644;28;106111;-63
2023/03/21 07:51:58;;;;;;;3.40;2.87;;;;;;;10.28;100.00;96459.19;5012838;28;101963;-63
2023/03/21 07:54:31;;;;;;;3.20;3.00;;;;;;;10.39;100.00;96465.41;5008535;28;105519;-64
2023/03/21 07:57:01;;;;;;;2.80;2.60;;;;;;;10.29;100.00;96459.97;5010657;28;102178;-64
2023/03/21 07:59:28;;;;;;;3.20;2.90;;;;;;;10.60;100.00;96468.09;5008915;28;105143;-63
2023/03/21 08:01:54;;;;;;;3.60;3.30;;;;;;;10.62;100.00;96462.50;5008409;28;105858;-64
2023/03/21 08:04:33;;;;;;;3.30;3.00;;;;;;;10.43;100.00;96463.88;5010861;28;101869;-63
2023/03/21 08:07:00;;;;;;;3.33;2.60;;;;;;;10.56;100.00;96455.53;4990946;28;102395;-63
2023/03/21 08:09:27;;;;;;;5.70;2.87;;;;;;;10.76;100.00;96455.75;4993333;28;103267;-63
2023/03/21 08:11:54;;;;;;;3.70;2.93;;;;;;;10.93;100.00;96457.28;5011657;28;102871;-63
2023/03/21 08:14:25;;;;;;;4.30;3.27;;;;;;;11.10;100.00;96452.66;5009751;28;103119;-63
2023/03/21 08:16:52;;;;;;;4.60;3.80;;;;;;;11.42;100.00;96444.69;5010833;28;101697;-65
2023/03/21 08:19:20;;;;;;;4.20;3.50;;;;;;;11.47;100.00;96448.22;5009969;28;102906;-63
2023/03/21 08:21:48;;;;;;;3.17;2.97;;;;;;;11.64;100.00;96456.91;5008121;28;105571;-63
2023/03/21 08:24:33;;;;;;;4.83;3.10;;;;;;;11.72;100.00;96450.28;5007055;28;101908;-64
2023/03/21 08:27:01;;;;;;;3.33;3.03;;;;;;;11.79;100.00;96451.69;5008401;28;104210;-64
2023/03/21 08:29:29;;;;;;;4.50;3.00;;;;;;;11.85;100.00;96444.50;5009300;28;102527;-62
2023/03/21 08:31:57;;;;;;;4.00;2.73;;;;;;;11.86;100.00;96448.78;5008686;28;102137;-64
2023/03/21 08:37:46;;;;;;;3.30;2.93;;;;;;;11.90;100.00;96439.22;5008806;28;101947;-64
2023/03/21 08:40:15;;;;;;;4.27;3.10;;;;;;;12.03;100.00;96441.41;5042320;27;105146;-64
2023/03/21 08:42:45;;;;;;;4.53;3.30;;;;;;;12.25;100.00;96444.75;5007917;28;105641;-63
2023/03/21 08:45:14;;;;;;;3.77;3.27;;;;;;;12.27;100.00;96439.97;5013353;28;101945;-63
2023/03/21 08:47:41;;;;;;;3.23;2.77;;;;;;;12.53;100.00;96441.69;5029631;27;102329;-63
2023/03/21 08:50:11;;;;;;;3.90;2.93;;;;;;;12.59;100.00;96443.31;5016998;28;105531;-63
2023/03/21 08:52:38;;;;;;;3.07;2.87;;;;;;;12.42;100.00;96434.72;5050382;27;101938;-63
2023/03/21 08:55:06;;;;;;;3.70;2.93;;;;;;;12.47;100.00;96432.03;5028457;28;105082;-68
2023/03/21 08:57:32;;;;;;;3.33;3.03;;;;;;;12.54;100.00;96435.28;5030619;28;105512;-63
2023/03/21 08:59:59;;;;;;;3.73;3.20;;;;;;;12.38;100.00;96434.41;5019154;28;105344;-63
2023/03/21 09:02:28;;;;;;;3.63;2.90;;;;;;;12.41;100.00;96427.75;5009303;28;105841;-63
2023/03/21 09:04:57;;;;;;;3.77;2.80;;;;;;;12.40;100.00;96434.16;5009915;28;101989;-62
2023/03/21 09:07:25;;;;;;;3.20;2.90;;;;;;;12.48;100.00;96434.44;5008331;28;104077;-62
2023/03/21 09:09:52;;;;;;;5.37;2.83;;;;;;;12.22;100.00;96431.94;5010660;28;105125;-63
2023/03/21 09:12:19;;;;;;;3.07;2.80;;;;;;;12.48;100.00;96433.66;5009669;28;102311;-63
2023/03/21 09:14:54;;;;;;;5.50;3.20;;;;;;;12.83;100.00;96431.09;5013880;28;105148;-63
2023/03/21 09:17:21;;;;;;;4.03;3.23;;;;;;;12.78;100.00;96423.91;5027576;28;105813;-63
2023/03/21 09:19:52;;;;;;;5.90;3.30;;;;;;;12.98;100.00;96425.84;5007923;28;102061;-63
2023/03/21 09:22:20;;;;;;;8.77;3.40;;;;;;;13.02;100.00;96426.94;5008842;28;102825;-63
2023/03/21 09:24:56;;;;;;;3.30;3.00;;;;;;;12.92;100.00;96429.53;4988316;28;101871;-63
2023/03/21 09:27:26;;;;;;;3.37;2.93;;;;;;;13.04;100.00;96425.56;4998097;28;105159;-63
2023/03/21 09:29:54;;;;;;;5.60;2.83;;;;;;;12.90;100.00;96429.78;4994606;28;104403;-61
2023/03/21 09:32:21;;;;;;;3.63;2.97;;;;;;;12.45;100.00;96431.50;5041360;27;102007;-62
2023/03/21 09:34:56;;;;;;;3.07;2.87;;;;;;;12.60;100.00;96428.91;5007995;28;105109;-62
2023/03/21 09:37:23;;;;;;;3.47;2.90;;;;;;;12.55;100.00;96431.56;5007338;28;105058;-63
2023/03/21 09:39:51;;;;;;;2.70;2.50;;;;;;;12.52;100.00;96426.72;5022338;28;102010;-63
2023/03/21 09:42:30;;;;;;;3.03;2.70;;;;;;;12.45;100.00;96428.84;5013820;28;105927;-63
2023/03/21 09:45:11;;;;;;;3.73;2.83;;;;;;;12.41;100.00;96428.56;5011216;28;101930;-63
2023/03/21 09:47:48;;;;;;;3.77;2.37;;;;;;;12.59;100.00;96419.31;5011097;28;105476;-63
2023/03/21 09:50:20;;;;;;;3.03;2.47;;;;;;;12.72;100.00;96408.13;5010368;28;105411;-63
2023/03/21 09:56:12;;;;;;;2.70;2.50;;;;;;;12.76;100.00;96410.00;5011207;28;104470;-62
2023/03/21 09:58:45;;;;;;;3.00;2.37;;;;;;;13.02;100.00;96403.69;5004465;28;105808;-61
2023/03/21 10:01:21;;;;;;;3.53;2.63;;;;;;;13.29;100.00;96400.75;5008201;28;101921;-61
2023/03/21 10:03:50;;;;;;;2.50;2.30;;;;;;;13.26;100.00;96399.47;5012344;28;102838;-62
2023/03/21 10:06:27;;;;;;;2.77;2.20;;;;;;;13.54;100.00;96395.44;5022030;28;101987;-61
2023/03/21 10:08:58;;;;;;;2.80;2.37;;;;;;;13.30;100.00;96389.03;5032394;27;102838;-62
2023/03/21 10:11:29;;;;;;;4.00;2.53;;;;;;;12.92;100.00;96390.28;5013020;27;102933;-63
2023/03/21 10:14:25;;;;;;;2.40;2.20;;;;;;;13.29;100.00;96384.75;5010504;28;101893;-62
2023/03/21 10:16:57;;;;;;;2.20;2.00;;;;;;;13.49;100.00;96384.75;5010742;28;105088;-62
2023/03/21 10:19:24;;;;;;;2.50;2.30;;;;;;;13.55;100.00;96381.00;5011294;28;102762;-62
2023/03/21 10:21:55;;;;;;;3.77;2.43;;;;;;;13.90;100.00;96383.63;5011905;28;101841;-62
2023/03/21 10:24:33;;;;;;;2.13;2.03;;;;;;;14.04;100.00;96387.31;5010561;28;105623;-62
2023/03/21 10:27:02;;;;;;;2.70;2.50;;;;;;;13.77;100.00;96385.00;5029056;28;102601;-61
2023/03/21 10:29:35;;;;;;;2.10;2.00;;;;;;;13.89;100.00;96376.69;5029628;27;102900;-61
2023/03/21 10:32:02;;;;;;;2.20;2.10;;;;;;;14.18;100.00;96367.75;5014937;28;106147;-61
2023/03/21 10:34:44;;;;;;;2.10;2.00;;;;;;;14.05;100.00;96362.19;5031949;27;101844;-61
2023/03/21 10:37:13;;;;;;;2.50;2.30;;;;;;;14.32;100.00;96376.03;5032158;27;102303;-62
2023/03/21 10:39:43;;;;;;;2.40;2.23;;;;;;;14.36;100.00;96379.75;5030298;27;102858;-64
2023/03/21 10:42:18;;;;;;;2.10;2.00;;;;;;;14.57;100.00;96373.25;5030293;28;102340;-62
2023/03/21 10:44:48;;;;;;;2.50;2.30;;;;;;;14.55;100.00;96375.41;5014108;28;105756;-61
2023/03/21 10:47:20;;;;;;;2.67;2.47;;;;;;;14.24;100.00;96373.94;5026566;28;105031;-60
2023/03/21 10:49:48;;;;;;;2.33;2.20;;;;;;;14.43;100.00;96365.00;5014297;28;101705;-61
2023/03/21 10:52:20;;;;;;;2.73;2.20;;;;;;;14.41;100.00;96377.88;5011123;28;103027;-61
2023/03/21 10:55:07;;;;;;;2.40;2.20;;;;;;;14.79;100.00;96371.78;5031655;27;101808;-62
2023/03/21 10:57:36;;;;;;;2.33;2.20;;;;;;;14.64;100.00;96379.09;5027311;27;102848;-62
2023/03/21 11:00:16;;;;;;;3.63;2.10;;;;;;;14.21;100.00;96369.09;5012483;28;102665;-62
2023/03/21 11:02:50;;;;;;;2.60;2.40;;;;;;;14.31;100.00;96369.06;5031503;28;102189;-62
2023/03/21 11:05:21;;;;;;;2.67;2.20;;;;;;;14.81;100.00;96368.81;5024761;28;105510;-61
2023/03/21 11:07:58;;;;;;;2.40;2.20;;;;;;;15.30;100.00;96362.31;5029299;28;105399;-61
2023/03/21 11:10:31;;;;;;;3.40;3.10;;;;;;;15.54;100.00;96363.19;5028339;27;101870;-61
2023/03/21 11:13:03;;;;;;;2.00;1.90;;;;;;;15.64;100.00;96356.97;5024445;27;103434;-61
2023/03/21 11:15:38;;;;;;;2.50;2.30;;;;;;;15.98;97.73;96346.97;5014206;28;101971;-61
2023/03/21 11:18:14;;;;;;;2.10;2.00;;;;;;;15.71;92.94;96352.06;5062016;27;104955;-61
2023/03/21 11:20:49;;;;;;;2.30;2.10;;;;;;;15.76;95.82;96346.66;5019861;27;102780;-61
2023/03/21 11:23:18;;;;;;;2.40;2.17;;;;;;;15.75;96.63;96347.75;5009368;28;102057;-62
2023/03/21 11:25:49;;;;;;;4.10;2.20;;;;;;;15.60;96.57;96350.56;5009641;28;103928;-61
2023/03/21 11:28:21;;;;;;;4.20;2.30;;;;;;;15.42;100.00;96343.25;5008705;28;105840;-61
2023/03/21 11:30:54;;;;;;;3.47;2.53;;;;;;;15.48;94.60;96337.53;5009031;28;102410;-61
2023/03/21 11:33:23;;;;;;;2.70;1.90;;;;;;;15.45;95.92;96327.38;5042743;27;104817;-62
2023/03/21 11:36:01;;;;;;;4.13;2.17;;;;;;;15.80;96.95;96326.25;5012451;28;105191;-62
2023/03/21 11:38:32;;;;;;;3.23;2.20;;;;;;;15.59;94.53;96322.94;5009833;28;105123;-61
2023/03/21 11:41:01;;;;;;;2.60;2.20;;;;;;;15.74;91.01;96319.31;5051919;27;105617;-61
2023/03/21 11:43:31;;;;;;;2.10;1.90;;;;;;;15.78;92.34;96313.13;4990941;28;101916;-62
2023/03/21 11:46:01;;;;;;;2.20;2.00;;;;;;;16.32;91.75;96312.75;5025378;28;102439;-61
2023/03/21 11:48:28;;;;;;;2.73;1.97;;;;;;;16.75;88.36;96308.97;5028741;28;105810;-61
2023/03/21 11:51:00;;;;;;;2.23;2.03;;;;;;;16.67;84.18;96305.03;5018724;27;101860;-62
2023/03/21 11:53:39;;;;;;;2.80;2.10;;;;;;;17.10;81.98;96308.41;5010245;28;102291;-61
2023/03/21 11:56:23;;;;;;;2.40;2.20;;;;;;;16.12;83.22;96304.94;5008627;28;105375;-61
2023/03/21 11:59:05;;;;;;;2.40;2.20;;;;;;;16.91;83.81;96295.03;5014247;28;101753;-62
2023/03/21 12:01:44;;;;;;;2.13;2.00;;;;;;;16.98;85.97;96295.44;5005341;28;102516;-60
2023/03/21 12:04:26;;;;;;;4.80;2.20;;;;;;;17.35;83.82;96289.19;5010282;28;102145;-60
2023/03/21 12:06:59;;;;;;;2.40;2.17;;;;;;;17.62;77.40;96279.34;5010685;28;102409;-61